sensor_id;sensor_type;location;lat;lon;timestamp;pressure;altitude;pressure_sealevel;temperature;humidity
24858;BME280;12935;50.782;6.074;2022-08-03T00:02:21;99526.72;;;21.84;95.13
24858;BME280;12935;50.782;6.074;2022-08-03T00:04:46;99528.69;;;21.92;94.80
24858;BME280;12935;50.782;6.074;2022-08-03T00:07:12;99520.50;;;21.89;94.12
24858;BME280;12935;50.782;6.074;2022-08-03T00:09:37;99524.53;;;21.88;93.78
24858;BME280;12935;50.782;6.074;2022-08-03T00:12:02;99519.91;;;21.85;93.58
24858;BME280;12935;50.782;6.074;2022-08-03T00:14:28;99522.22;;;21.86;93.61
24858;BME280;12935;50.782;6.074;2022-08-03T00:16:53;99520.06;;;21.81;94.23
24858;BME280;12935;50.782;6.074;2022-08-03T00:19:18;99521.94;;;21.84;94.40
24858;BME280;12935;50.782;6.074;2022-08-03T00:21:44;99519.78;;;21.79;94.63
24858;BME280;12935;50.782;6.074;2022-08-03T00:24:09;99505.25;;;21.75;94.86
24858;BME280;12935;50.782;6.074;2022-08-03T00:26:34;99519.00;;;21.79;95.51
24858;BME280;12935;50.782;6.074;2022-08-03T00:29:00;99514.50;;;21.81;95.49
24858;BME280;12935;50.782;6.074;2022-08-03T00:31:25;99516.72;;;21.68;95.54
24858;BME280;12935;50.782;6.074;2022-08-03T00:33:50;99508.38;;;21.68;95.85
24858;BME280;12935;50.782;6.074;2022-08-03T00:36:15;99516.25;;;21.69;95.40
24858;BME280;12935;50.782;6.074;2022-08-03T00:38:41;99509.63;;;21.67;95.32
24858;BME280;12935;50.782;6.074;2022-08-03T00:41:06;99508.59;;;21.55;95.93
24858;BME280;12935;50.782;6.074;2022-08-03T00:43:31;99514.97;;;21.38;98.57
24858;BME280;12935;50.782;6.074;2022-08-03T00:45:57;99505.41;;;21.29;99.31
24858;BME280;12935;50.782;6.074;2022-08-03T00:48:22;99502.16;;;21.31;98.94
24858;BME280;12935;50.782;6.074;2022-08-03T00:50:48;99505.84;;;21.37;98.82
24858;BME280;12935;50.782;6.074;2022-08-03T00:53:13;99505.84;;;21.37;98.64
24858;BME280;12935;50.782;6.074;2022-08-03T00:55:40;99503.06;;;21.28;99.10
24858;BME280;12935;50.782;6.074;2022-08-03T00:58:06;99497.72;;;21.24;100.00
24858;BME280;12935;50.782;6.074;2022-08-03T01:00:34;99490.75;;;21.20;100.00
24858;BME280;12935;50.782;6.074;2022-08-03T01:03:01;99502.78;;;21.26;100.00
24858;BME280;12935;50.782;6.074;2022-08-03T01:05:27;99506.50;;;21.23;100.00
24858;BME280;12935;50.782;6.074;2022-08-03T01:08:30;99500.00;;;21.17;100.00
24858;BME280;12935;50.782;6.074;2022-08-03T01:11:14;99503.56;;;21.08;100.00
24858;BME280;12935;50.782;6.074;2022-08-03T01:14:14;99499.41;;;21.04;100.00
24858;BME280;12935;50.782;6.074;2022-08-03T01:22:08;99487.09;;;20.77;100.00
24858;BME280;12935;50.782;6.074;2022-08-03T01:24:49;99496.16;;;20.87;100.00
24858;BME280;12935;50.782;6.074;2022-08-03T01:27:24;99498.50;;;20.88;100.00
24858;BME280;12935;50.782;6.074;2022-08-03T01:30:06;99495.84;;;20.85;100.00
24858;BME280;12935;50.782;6.074;2022-08-03T01:32:47;99494.16;;;20.78;100.00
24858;BME280;12935;50.782;6.074;2022-08-03T01:35:25;99498.00;;;20.81;100.00
24858;BME280;12935;50.782;6.074;2022-08-03T01:37:57;99488.59;;;20.78;100.00
24858;BME280;12935;50.782;6.074;2022-08-03T01:40:26;99486.91;;;20.72;100.00
24858;BME280;12935;50.782;6.074;2022-08-03T01:42:54;99481.19;;;20.66;100.00
24858;BME280;12935;50.782;6.074;2022-08-03T01:45:21;99478.28;;;20.60;100.00
24858;BME280;12935;50.782;6.074;2022-08-03T01:47:48;99485.69;;;20.54;100.00
24858;BME280;12935;50.782;6.074;2022-08-03T01:50:17;99490.16;;;20.52;100.00
24858;BME280;12935;50.782;6.074;2022-08-03T01:52:44;99475.94;;;20.50;100.00
24858;BME280;12935;50.782;6.074;2022-08-03T01:55:11;99476.09;;;20.46;100.00
24858;BME280;12935;50.782;6.074;2022-08-03T01:57:39;99481.81;;;20.52;100.00
24858;BME280;12935;50.782;6.074;2022-08-03T02:00:08;99479.97;;;20.49;100.00
24858;BME280;12935;50.782;6.074;2022-08-03T02:02:35;99478.72;;;20.50;100.00
24858;BME280;12935;50.782;6.074;2022-08-03T02:05:03;99475.50;;;20.51;100.00
24858;BME280;12935;50.782;6.074;2022-08-03T02:07:31;99469.94;;;20.51;100.00
24858;BME280;12935;50.782;6.074;2022-08-03T02:09:58;99467.63;;;20.50;100.00
24858;BME280;12935;50.782;6.074;2022-08-03T02:12:25;99472.84;;;20.48;100.00
24858;BME280;12935;50.782;6.074;2022-08-03T02:14:52;99471.16;;;20.50;100.00
24858;BME280;12935;50.782;6.074;2022-08-03T02:17:18;99471.78;;;20.54;100.00
24858;BME280;12935;50.782;6.074;2022-08-03T02:19:45;99468.72;;;20.52;100.00
24858;BME280;12935;50.782;6.074;2022-08-03T02:22:12;99465.47;;;20.54;100.00
24858;BME280;12935;50.782;6.074;2022-08-03T02:24:39;99472.72;;;20.51;100.00
24858;BME280;12935;50.782;6.074;2022-08-03T02:27:09;99463.31;;;20.49;100.00
24858;BME280;12935;50.782;6.074;2022-08-03T02:29:39;99470.09;;;20.48;100.00
24858;BME280;12935;50.782;6.074;2022-08-03T02:32:09;99462.03;;;20.31;100.00
24858;BME280;12935;50.782;6.074;2022-08-03T02:34:36;99475.13;;;20.22;100.00
24858;BME280;12935;50.782;6.074;2022-08-03T02:37:04;99473.25;;;20.19;100.00
24858;BME280;12935;50.782;6.074;2022-08-03T02:39:31;99474.97;;;20.25;100.00
24858;BME280;12935;50.782;6.074;2022-08-03T02:42:00;99467.56;;;20.31;100.00
24858;BME280;12935;50.782;6.074;2022-08-03T02:44:30;99466.66;;;20.35;100.00
24858;BME280;12935;50.782;6.074;2022-08-03T02:47:03;99468.34;;;20.23;100.00
24858;BME280;12935;50.782;6.074;2022-08-03T02:49:30;99468.63;;;20.16;100.00
24858;BME280;12935;50.782;6.074;2022-08-03T02:51:57;99459.53;;;20.15;100.00
24858;BME280;12935;50.782;6.074;2022-08-03T02:54:24;99476.34;;;20.21;100.00
24858;BME280;12935;50.782;6.074;2022-08-03T02:56:53;99475.88;;;20.13;100.00
24858;BME280;12935;50.782;6.074;2022-08-03T02:59:19;99473.13;;;20.13;100.00
24858;BME280;12935;50.782;6.074;2022-08-03T03:01:45;99467.56;;;20.13;100.00
24858;BME280;12935;50.782;6.074;2022-08-03T03:04:11;99475.72;;;20.17;100.00
24858;BME280;12935;50.782;6.074;2022-08-03T03:06:38;99465.84;;;20.16;100.00
24858;BME280;12935;50.782;6.074;2022-08-03T03:09:04;99467.56;;;20.13;100.00
24858;BME280;12935;50.782;6.074;2022-08-03T03:11:30;99460.13;;;20.01;100.00
24858;BME280;12935;50.782;6.074;2022-08-03T03:13:57;99463.97;;;19.94;100.00
24858;BME280;12935;50.782;6.074;2022-08-03T03:16:24;99473.66;;;19.99;100.00
24858;BME280;12935;50.782;6.074;2022-08-03T03:18:50;99459.50;;;19.97;100.00
24858;BME280;12935;50.782;6.074;2022-08-03T03:21:17;99466.09;;;19.90;100.00
24858;BME280;12935;50.782;6.074;2022-08-03T03:23:44;99466.88;;;19.91;100.00
24858;BME280;12935;50.782;6.074;2022-08-03T03:26:12;99470.88;;;19.99;100.00
24858;BME280;12935;50.782;6.074;2022-08-03T03:28:38;99469.84;;;20.06;100.00
24858;BME280;12935;50.782;6.074;2022-08-03T03:31:05;99476.78;;;20.10;100.00
24858;BME280;12935;50.782;6.074;2022-08-03T03:33:32;99470.78;;;20.12;100.00
24858;BME280;12935;50.782;6.074;2022-08-03T03:35:58;99468.47;;;20.10;100.00
24858;BME280;12935;50.782;6.074;2022-08-03T03:38:23;99470.44;;;20.01;100.00
24858;BME280;12935;50.782;6.074;2022-08-03T03:40:49;99464.28;;;19.96;100.00
24858;BME280;12935;50.782;6.074;2022-08-03T03:43:14;99475.19;;;19.91;100.00
24858;BME280;12935;50.782;6.074;2022-08-03T03:45:42;99467.16;;;19.84;100.00
24858;BME280;12935;50.782;6.074;2022-08-03T03:48:08;99478.56;;;19.86;100.00
24858;BME280;12935;50.782;6.074;2022-08-03T03:50:35;99475.97;;;19.91;100.00
24858;BME280;12935;50.782;6.074;2022-08-03T03:53:02;99474.59;;;19.96;100.00
24858;BME280;12935;50.782;6.074;2022-08-03T03:55:28;99466.59;;;19.98;100.00
24858;BME280;12935;50.782;6.074;2022-08-03T03:57:54;99471.53;;;20.03;100.00
24858;BME280;12935;50.782;6.074;2022-08-03T04:00:20;99468.75;;;20.03;100.00
24858;BME280;12935;50.782;6.074;2022-08-03T04:02:46;99470.16;;;20.08;100.00
24858;BME280;12935;50.782;6.074;2022-08-03T04:05:12;99480.03;;;20.09;100.00
24858;BME280;12935;50.782;6.074;2022-08-03T04:08:03;99474.34;;;20.12;100.00
24858;BME280;12935;50.782;6.074;2022-08-03T04:10:58;99470.78;;;20.12;100.00
24858;BME280;12935;50.782;6.074;2022-08-03T04:13:34;99471.41;;;20.16;100.00
24858;BME280;12935;50.782;6.074;2022-08-03T04:16:02;99476.81;;;20.19;100.00
24858;BME280;12935;50.782;6.074;2022-08-03T04:18:30;99472.94;;;20.17;100.00
24858;BME280;12935;50.782;6.074;2022-08-03T04:21:00;99471.25;;;20.19;100.00
24858;BME280;12935;50.782;6.074;2022-08-03T04:23:30;99473.88;;;20.23;100.00
24858;BME280;12935;50.782;6.074;2022-08-03T04:25:56;99472.81;;;20.20;100.00
24858;BME280;12935;50.782;6.074;2022-08-03T04:28:22;99469.13;;;20.23;100.00
24858;BME280;12935;50.782;6.074;2022-08-03T04:30:48;99464.78;;;20.22;100.00
24858;BME280;12935;50.782;6.074;2022-08-03T04:33:15;99475.28;;;20.27;100.00
24858;BME280;12935;50.782;6.074;2022-08-03T04:35:42;99479.28;;;20.26;100.00
24858;BME280;12935;50.782;6.074;2022-08-03T04:38:12;99481.25;;;20.17;100.00
24858;BME280;12935;50.782;6.074;2022-08-03T04:40:40;99470.47;;;20.19;100.00
24858;BME280;12935;50.782;6.074;2022-08-03T04:43:07;99472.34;;;20.22;100.00
24858;BME280;12935;50.782;6.074;2022-08-03T04:45:34;99475.75;;;20.26;100.00
24858;BME280;12935;50.782;6.074;2022-08-03T04:48:00;99474.34;;;20.30;100.00
24858;BME280;12935;50.782;6.074;2022-08-03T04:50:26;99479.75;;;20.34;100.00
24858;BME280;12935;50.782;6.074;2022-08-03T04:52:52;99485.97;;;20.38;100.00
24858;BME280;12935;50.782;6.074;2022-08-03T04:55:31;99487.06;;;20.41;100.00
24858;BME280;12935;50.782;6.074;2022-08-03T04:57:57;99486.13;;;20.44;100.00
24858;BME280;12935;50.782;6.074;2022-08-03T05:00:24;99495.53;;;20.46;100.00
24858;BME280;12935;50.782;6.074;2022-08-03T05:02:49;99477.81;;;20.44;100.00
24858;BME280;12935;50.782;6.074;2022-08-03T05:05:16;99489.22;;;20.55;100.00
24858;BME280;12935;50.782;6.074;2022-08-03T05:07:42;99480.28;;;20.60;100.00
24858;BME280;12935;50.782;6.074;2022-08-03T05:10:09;99486.13;;;20.62;100.00
24858;BME280;12935;50.782;6.074;2022-08-03T05:12:35;99492.16;;;20.70;100.00
24858;BME280;12935;50.782;6.074;2022-08-03T05:15:01;99489.69;;;20.62;100.00
24858;BME280;12935;50.782;6.074;2022-08-03T05:17:27;99490.31;;;20.66;100.00
24858;BME280;12935;50.782;6.074;2022-08-03T05:19:53;99493.25;;;20.72;100.00
24858;BME280;12935;50.782;6.074;2022-08-03T05:22:19;99481.53;;;20.77;100.00
24858;BME280;12935;50.782;6.074;2022-08-03T05:24:44;99491.38;;;20.87;100.00
24858;BME280;12935;50.782;6.074;2022-08-03T05:27:09;99484.28;;;20.86;100.00
24858;BME280;12935;50.782;6.074;2022-08-03T05:29:41;99496.91;;;20.96;100.00
24858;BME280;12935;50.782;6.074;2022-08-03T05:32:06;99490.28;;;20.94;100.00
24858;BME280;12935;50.782;6.074;2022-08-03T05:34:32;99479.94;;;20.94;100.00
24858;BME280;12935;50.782;6.074;2022-08-03T05:36:58;99485.34;;;21.07;100.00
24858;BME280;12935;50.782;6.074;2022-08-03T05:39:23;99489.97;;;21.10;100.00
24858;BME280;12935;50.782;6.074;2022-08-03T05:41:48;99485.47;;;21.13;100.00
24858;BME280;12935;50.782;6.074;2022-08-03T05:44:14;99490.16;;;21.25;100.00
24858;BME280;12935;50.782;6.074;2022-08-03T05:46:39;99497.06;;;21.39;100.00
24858;BME280;12935;50.782;6.074;2022-08-03T05:49:04;99485.94;;;21.39;100.00
24858;BME280;12935;50.782;6.074;2022-08-03T05:51:29;99489.59;;;21.54;100.00
24858;BME280;12935;50.782;6.074;2022-08-03T05:53:55;99483.84;;;21.57;100.00
24858;BME280;12935;50.782;6.074;2022-08-03T05:56:22;99496.34;;;21.71;100.00
24858;BME280;12935;50.782;6.074;2022-08-03T05:58:48;99496.59;;;21.82;100.00
24858;BME280;12935;50.782;6.074;2022-08-03T06:01:15;99499.44;;;21.97;100.00
24858;BME280;12935;50.782;6.074;2022-08-03T06:03:40;99493.28;;;22.02;99.17
24858;BME280;12935;50.782;6.074;2022-08-03T06:06:05;99496.91;;;22.17;96.76
24858;BME280;12935;50.782;6.074;2022-08-03T06:08:31;99492.81;;;22.27;95.56
24858;BME280;12935;50.782;6.074;2022-08-03T06:10:56;99483.91;;;22.38;94.44
24858;BME280;12935;50.782;6.074;2022-08-03T06:13:21;99493.38;;;22.55;93.08
24858;BME280;12935;50.782;6.074;2022-08-03T06:15:47;99497.38;;;22.63;91.98
24858;BME280;12935;50.782;6.074;2022-08-03T06:18:12;99495.25;;;22.73;90.71
24858;BME280;12935;50.782;6.074;2022-08-03T06:20:37;99499.84;;;22.85;90.03
24858;BME280;12935;50.782;6.074;2022-08-03T06:23:03;99498.53;;;22.95;89.02
24858;BME280;12935;50.782;6.074;2022-08-03T06:25:28;99494.38;;;23.05;88.15
24858;BME280;12935;50.782;6.074;2022-08-03T06:27:54;99493.72;;;23.11;88.11
24858;BME280;12935;50.782;6.074;2022-08-03T06:30:20;99497.47;;;23.22;85.37
24858;BME280;12935;50.782;6.074;2022-08-03T06:32:45;99492.56;;;23.32;83.54
24858;BME280;12935;50.782;6.074;2022-08-03T06:35:10;99493.72;;;23.40;82.91
24858;BME280;12935;50.782;6.074;2022-08-03T06:37:43;99494.53;;;23.55;80.58
24858;BME280;12935;50.782;6.074;2022-08-03T06:40:14;99491.59;;;23.64;78.88
24858;BME280;12935;50.782;6.074;2022-08-03T06:42:40;99492.00;;;23.72;78.14
24858;BME280;12935;50.782;6.074;2022-08-03T06:45:06;99495.25;;;23.85;75.26
24858;BME280;12935;50.782;6.074;2022-08-03T06:47:34;99490.78;;;23.93;74.43
24858;BME280;12935;50.782;6.074;2022-08-03T06:49:59;99492.59;;;23.96;71.27
24858;BME280;12935;50.782;6.074;2022-08-03T06:52:24;99490.88;;;23.99;70.98
24858;BME280;12935;50.782;6.074;2022-08-03T06:54:49;99494.22;;;24.03;71.65
24858;BME280;12935;50.782;6.074;2022-08-03T06:57:15;99495.84;;;24.09;71.77
24858;BME280;12935;50.782;6.074;2022-08-03T06:59:42;99500.25;;;24.16;72.24
24858;BME280;12935;50.782;6.074;2022-08-03T07:02:08;99497.91;;;24.29;69.93
24858;BME280;12935;50.782;6.074;2022-08-03T07:04:34;99495.78;;;24.39;69.87
24858;BME280;12935;50.782;6.074;2022-08-03T07:06:59;99491.09;;;24.51;69.11
24858;BME280;12935;50.782;6.074;2022-08-03T07:09:25;99494.69;;;24.57;69.36
24858;BME280;12935;50.782;6.074;2022-08-03T07:11:50;99501.06;;;24.57;68.08
24858;BME280;12935;50.782;6.074;2022-08-03T07:14:16;99487.09;;;24.57;67.91
24858;BME280;12935;50.782;6.074;2022-08-03T07:16:41;99502.03;;;24.74;68.17
24858;BME280;12935;50.782;6.074;2022-08-03T07:19:07;99503.19;;;24.88;68.26
24858;BME280;12935;50.782;6.074;2022-08-03T07:21:33;99500.28;;;24.97;67.61
24858;BME280;12935;50.782;6.074;2022-08-03T07:23:58;99500.66;;;25.10;67.47
24858;BME280;12935;50.782;6.074;2022-08-03T07:26:23;99503.53;;;25.16;66.48
24858;BME280;12935;50.782;6.074;2022-08-03T07:28:49;99499.50;;;25.23;66.20
24858;BME280;12935;50.782;6.074;2022-08-03T07:31:14;99501.31;;;25.26;65.12
24858;BME280;12935;50.782;6.074;2022-08-03T07:33:39;99511.34;;;25.38;64.15
24858;BME280;12935;50.782;6.074;2022-08-03T07:36:04;99505.59;;;25.47;64.47
24858;BME280;12935;50.782;6.074;2022-08-03T07:38:30;99508.69;;;25.49;61.78
24858;BME280;12935;50.782;6.074;2022-08-03T07:40:55;99503.31;;;25.51;62.14
24858;BME280;12935;50.782;6.074;2022-08-03T07:43:20;99501.94;;;25.67;61.92
24858;BME280;12935;50.782;6.074;2022-08-03T07:45:46;99499.75;;;25.76;61.01
24858;BME280;12935;50.782;6.074;2022-08-03T07:48:11;99510.19;;;25.81;59.72
24858;BME280;12935;50.782;6.074;2022-08-03T07:50:36;99503.13;;;25.86;59.50
24858;BME280;12935;50.782;6.074;2022-08-03T07:53:01;99514.91;;;25.96;59.15
24858;BME280;12935;50.782;6.074;2022-08-03T07:55:27;99507.06;;;26.05;58.35
24858;BME280;12935;50.782;6.074;2022-08-03T07:58:04;99503.81;;;26.12;57.45
24858;BME280;12935;50.782;6.074;2022-08-03T08:00:30;99517.38;;;26.25;56.72
24858;BME280;12935;50.782;6.074;2022-08-03T08:02:56;99516.47;;;26.39;55.94
24858;BME280;12935;50.782;6.074;2022-08-03T08:05:21;99512.66;;;26.48;56.09
24858;BME280;12935;50.782;6.074;2022-08-03T08:07:46;99510.66;;;26.54;55.35
24858;BME280;12935;50.782;6.074;2022-08-03T08:10:12;99509.66;;;26.63;55.41
24858;BME280;12935;50.782;6.074;2022-08-03T08:12:38;99511.00;;;26.73;55.26
24858;BME280;12935;50.782;6.074;2022-08-03T08:15:06;99508.97;;;26.79;54.64
24858;BME280;12935;50.782;6.074;2022-08-03T08:17:53;99514.88;;;26.92;54.50
24858;BME280;12935;50.782;6.074;2022-08-03T08:20:20;99510.06;;;26.98;54.12
24858;BME280;12935;50.782;6.074;2022-08-03T08:22:46;99502.94;;;27.08;53.87
24858;BME280;12935;50.782;6.074;2022-08-03T08:25:12;99513.69;;;27.21;53.61
24858;BME280;12935;50.782;6.074;2022-08-03T08:27:46;99515.97;;;27.17;52.86
24858;BME280;12935;50.782;6.074;2022-08-03T08:30:12;99516.50;;;27.21;52.38
24858;BME280;12935;50.782;6.074;2022-08-03T08:32:38;99505.53;;;27.29;52.80
24858;BME280;12935;50.782;6.074;2022-08-03T08:35:04;99509.63;;;27.44;52.78
24858;BME280;12935;50.782;6.074;2022-08-03T08:37:30;99507.34;;;27.54;52.29
24858;BME280;12935;50.782;6.074;2022-08-03T08:39:55;99502.75;;;27.56;50.36
24858;BME280;12935;50.782;6.074;2022-08-03T08:42:21;99516.56;;;27.66;51.74
24858;BME280;12935;50.782;6.074;2022-08-03T08:44:46;99497.91;;;27.74;50.50
24858;BME280;12935;50.782;6.074;2022-08-03T08:47:13;99507.63;;;27.78;50.73
24858;BME280;12935;50.782;6.074;2022-08-03T08:49:39;99505.31;;;27.82;49.91
24858;BME280;12935;50.782;6.074;2022-08-03T08:52:06;99509.91;;;27.91;49.65
24858;BME280;12935;50.782;6.074;2022-08-03T08:54:33;99514.50;;;28.00;49.61
24858;BME280;12935;50.782;6.074;2022-08-03T08:57:02;99510.63;;;28.03;49.44
24858;BME280;12935;50.782;6.074;2022-08-03T08:59:31;99506.78;;;28.17;49.59
24858;BME280;12935;50.782;6.074;2022-08-03T09:01:56;99512.94;;;28.15;48.93
24858;BME280;12935;50.782;6.074;2022-08-03T09:04:23;99510.09;;;28.32;48.88
24858;BME280;12935;50.782;6.074;2022-08-03T09:06:48;99513.63;;;28.44;48.21
24858;BME280;12935;50.782;6.074;2022-08-03T09:09:14;99510.50;;;28.58;47.70
24858;BME280;12935;50.782;6.074;2022-08-03T09:11:43;99509.44;;;28.67;47.15
24858;BME280;12935;50.782;6.074;2022-08-03T09:14:09;99505.84;;;28.72;46.75
24858;BME280;12935;50.782;6.074;2022-08-03T09:16:35;99512.72;;;28.82;46.50
24858;BME280;12935;50.782;6.074;2022-08-03T09:19:13;99513.69;;;28.96;46.87
24858;BME280;12935;50.782;6.074;2022-08-03T09:21:39;99523.31;;;29.12;45.94
24858;BME280;12935;50.782;6.074;2022-08-03T09:24:05;99515.09;;;29.14;45.95
24858;BME280;12935;50.782;6.074;2022-08-03T09:26:33;99520.44;;;29.17;45.41
24858;BME280;12935;50.782;6.074;2022-08-03T09:29:05;99520.19;;;29.15;45.51
24858;BME280;12935;50.782;6.074;2022-08-03T09:31:35;99522.25;;;29.15;45.42
24858;BME280;12935;50.782;6.074;2022-08-03T09:34:03;99525.19;;;29.33;45.50
24858;BME280;12935;50.782;6.074;2022-08-03T09:36:38;99515.41;;;29.46;45.28
24858;BME280;12935;50.782;6.074;2022-08-03T09:39:10;99524.56;;;29.57;44.96
24858;BME280;12935;50.782;6.074;2022-08-03T09:41:37;99521.44;;;29.61;44.79
24858;BME280;12935;50.782;6.074;2022-08-03T09:44:03;99512.69;;;29.64;44.42
24858;BME280;12935;50.782;6.074;2022-08-03T09:46:28;99505.66;;;29.77;44.80
24858;BME280;12935;50.782;6.074;2022-08-03T09:49:11;99518.00;;;29.74;43.74
24858;BME280;12935;50.782;6.074;2022-08-03T09:51:37;99514.56;;;29.86;43.95
24858;BME280;12935;50.782;6.074;2022-08-03T09:54:03;99511.75;;;29.86;42.93
24858;BME280;12935;50.782;6.074;2022-08-03T09:59:06;99517.38;;;30.16;43.27
24858;BME280;12935;50.782;6.074;2022-08-03T10:01:34;99515.75;;;30.45;42.07
24858;BME280;12935;50.782;6.074;2022-08-03T10:03:59;99510.47;;;30.60;42.54
24858;BME280;12935;50.782;6.074;2022-08-03T10:06:25;99505.38;;;30.78;41.95
24858;BME280;12935;50.782;6.074;2022-08-03T10:09:26;99511.69;;;31.02;41.91
24858;BME280;12935;50.782;6.074;2022-08-03T10:11:52;99502.31;;;31.32;40.77
24858;BME280;12935;50.782;6.074;2022-08-03T10:14:17;99494.06;;;31.34;39.95
24858;BME280;12935;50.782;6.074;2022-08-03T10:16:44;99501.81;;;31.47;39.62
24858;BME280;12935;50.782;6.074;2022-08-03T10:19:10;99498.00;;;31.76;40.36
24858;BME280;12935;50.782;6.074;2022-08-03T10:21:40;99505.00;;;31.88;38.63
24858;BME280;12935;50.782;6.074;2022-08-03T10:24:07;99501.81;;;31.79;38.17
24858;BME280;12935;50.782;6.074;2022-08-03T10:26:37;99503.38;;;31.93;38.28
24858;BME280;12935;50.782;6.074;2022-08-03T10:29:04;99494.34;;;31.94;37.87
24858;BME280;12935;50.782;6.074;2022-08-03T10:31:39;99494.44;;;32.15;39.31
24858;BME280;12935;50.782;6.074;2022-08-03T10:34:16;99499.34;;;32.67;38.72
24858;BME280;12935;50.782;6.074;2022-08-03T10:36:43;99484.81;;;32.97;37.54
24858;BME280;12935;50.782;6.074;2022-08-03T10:39:10;99486.59;;;32.87;37.20
24858;BME280;12935;50.782;6.074;2022-08-03T10:41:39;99475.31;;;32.74;37.45
24858;BME280;12935;50.782;6.074;2022-08-03T10:44:17;99482.16;;;32.65;36.53
24858;BME280;12935;50.782;6.074;2022-08-03T10:46:44;99480.06;;;32.79;36.86
24858;BME280;12935;50.782;6.074;2022-08-03T10:49:12;99472.34;;;32.80;37.00
24858;BME280;12935;50.782;6.074;2022-08-03T10:51:40;99481.22;;;32.97;36.77
24858;BME280;12935;50.782;6.074;2022-08-03T10:54:05;99473.28;;;33.29;36.43
24858;BME280;12935;50.782;6.074;2022-08-03T10:59:14;99470.03;;;33.25;35.64
24858;BME280;12935;50.782;6.074;2022-08-03T11:01:55;99467.19;;;33.67;35.46
24858;BME280;12935;50.782;6.074;2022-08-03T11:04:22;99468.09;;;33.83;35.48
24858;BME280;12935;50.782;6.074;2022-08-03T11:09:59;99465.88;;;33.68;33.60
24858;BME280;12935;50.782;6.074;2022-08-03T11:12:27;99464.28;;;33.80;34.37
24858;BME280;12935;50.782;6.074;2022-08-03T11:14:54;99473.63;;;34.24;35.09
24858;BME280;12935;50.782;6.074;2022-08-03T11:17:20;99474.16;;;34.51;33.12
24858;BME280;12935;50.782;6.074;2022-08-03T11:19:47;99470.41;;;35.07;33.33
24858;BME280;12935;50.782;6.074;2022-08-03T11:22:12;99466.50;;;35.48;32.88
24858;BME280;12935;50.782;6.074;2022-08-03T11:35:09;99471.44;;;35.48;31.91
24858;BME280;12935;50.782;6.074;2022-08-03T11:40:53;99464.78;;;35.61;31.81
24858;BME280;12935;50.782;6.074;2022-08-03T11:48:36;99463.47;;;35.69;30.72
24858;BME280;12935;50.782;6.074;2022-08-03T11:51:03;99463.84;;;35.58;31.00
24858;BME280;12935;50.782;6.074;2022-08-03T11:53:29;99461.00;;;35.58;31.83
24858;BME280;12935;50.782;6.074;2022-08-03T11:55:58;99461.00;;;36.04;31.51
24858;BME280;12935;50.782;6.074;2022-08-03T11:58:25;99448.41;;;36.22;31.18
24858;BME280;12935;50.782;6.074;2022-08-03T12:00:51;99449.41;;;36.72;30.85
24858;BME280;12935;50.782;6.074;2022-08-03T12:03:18;99442.16;;;36.79;30.64
24858;BME280;12935;50.782;6.074;2022-08-03T12:08:14;99450.19;;;36.02;31.21
24858;BME280;12935;50.782;6.074;2022-08-03T12:10:45;99445.47;;;35.82;30.75
24858;BME280;12935;50.782;6.074;2022-08-03T12:13:11;99454.31;;;36.16;31.24
24858;BME280;12935;50.782;6.074;2022-08-03T12:15:36;99450.25;;;36.50;31.22
24858;BME280;12935;50.782;6.074;2022-08-03T12:18:09;99443.56;;;37.28;31.31
24858;BME280;12935;50.782;6.074;2022-08-03T12:20:36;99437.59;;;38.00;29.93
24858;BME280;12935;50.782;6.074;2022-08-03T12:23:04;99438.22;;;38.33;28.92
24858;BME280;12935;50.782;6.074;2022-08-03T12:25:30;99442.31;;;37.63;29.20
24858;BME280;12935;50.782;6.074;2022-08-03T12:28:06;99434.41;;;36.72;30.27
24858;BME280;12935;50.782;6.074;2022-08-03T12:30:32;99438.16;;;36.34;31.54
24858;BME280;12935;50.782;6.074;2022-08-03T12:32:57;99437.34;;;36.49;31.29
24858;BME280;12935;50.782;6.074;2022-08-03T12:35:24;99430.56;;;36.21;31.11
24858;BME280;12935;50.782;6.074;2022-08-03T12:37:50;99444.47;;;36.10;31.05
24858;BME280;12935;50.782;6.074;2022-08-03T12:40:24;99439.91;;;36.07;30.03
24858;BME280;12935;50.782;6.074;2022-08-03T12:42:51;99438.47;;;35.83;30.40
24858;BME280;12935;50.782;6.074;2022-08-03T12:45:28;99442.94;;;36.09;30.80
24858;BME280;12935;50.782;6.074;2022-08-03T12:48:00;99423.63;;;37.28;30.04
24858;BME280;12935;50.782;6.074;2022-08-03T12:50:33;99429.69;;;37.49;28.45
24858;BME280;12935;50.782;6.074;2022-08-03T12:53:01;99429.75;;;37.16;29.32
24858;BME280;12935;50.782;6.074;2022-08-03T12:55:27;99430.72;;;37.44;29.83
24858;BME280;12935;50.782;6.074;2022-08-03T12:58:01;99433.66;;;38.47;28.18
24858;BME280;12935;50.782;6.074;2022-08-03T13:00:27;99426.59;;;39.85;26.10
24858;BME280;12935;50.782;6.074;2022-08-03T13:05:23;99418.47;;;44.58;22.66
24858;BME280;12935;50.782;6.074;2022-08-03T13:07:48;99422.41;;;45.57;20.87
24858;BME280;12935;50.782;6.074;2022-08-03T13:10:27;99416.34;;;44.98;21.42
24858;BME280;12935;50.782;6.074;2022-08-03T13:12:52;99422.25;;;45.00;20.92
24858;BME280;12935;50.782;6.074;2022-08-03T13:15:18;99417.38;;;43.89;21.54
24858;BME280;12935;50.782;6.074;2022-08-03T13:17:43;99414.81;;;43.95;21.40
24858;BME280;12935;50.782;6.074;2022-08-03T13:20:09;99418.34;;;44.56;21.28
24858;BME280;12935;50.782;6.074;2022-08-03T13:22:34;99424.53;;;45.15;20.35
24858;BME280;12935;50.782;6.074;2022-08-03T13:25:01;99421.09;;;45.73;20.09
24858;BME280;12935;50.782;6.074;2022-08-03T13:27:28;99416.03;;;46.01;19.54
24858;BME280;12935;50.782;6.074;2022-08-03T13:29:54;99403.59;;;46.42;19.39
24858;BME280;12935;50.782;6.074;2022-08-03T13:32:20;99404.53;;;48.61;17.60
24858;BME280;12935;50.782;6.074;2022-08-03T13:34:45;99412.41;;;47.38;18.79
24858;BME280;12935;50.782;6.074;2022-08-03T13:37:11;99403.91;;;46.79;19.09